Time;durP1;ratioP1;P1;durP2;ratioP2;P2;SDS_P1;SDS_P2;PMS_P1;PMS_P2;Temp;Humidity;BMP_temperature;BMP_pressure;BME280_temperature;BME280_humidity;BME280_pressure;Samples;Min_cycle;Max_cycle;Signal;HPM_P1;HPM_P2
2022/08/31 00:05:59;;;;;;;1.33;1.23;;;21.90;80.20;;;;;;5092228;28;20221;-38
2022/08/31 00:08:35;;;;;;;2.00;1.25;;;21.90;80.60;;;;;;5116921;28;20293;-38
2022/08/31 00:11:02;;;;;;;4.00;1.00;;;21.90;80.70;;;;;;5114612;28;20225;-38
2022/08/31 00:13:35;;;;;;;3.53;1.50;;;21.90;80.40;;;;;;5107543;28;20307;-38
2022/08/31 00:16:03;;;;;;;3.42;1.60;;;21.90;80.90;;;;;;5110028;27;20229;-39
2022/08/31 00:18:30;;;;;;;2.10;1.40;;;21.90;80.70;;;;;;5120838;27;20197;-39
2022/08/31 00:20:58;;;;;;;3.38;1.40;;;21.80;80.50;;;;;;5123028;27;20297;-39
2022/08/31 00:23:25;;;;;;;5.03;1.23;;;21.80;80.90;;;;;;5119566;27;20202;-39
2022/08/31 00:25:52;;;;;;;1.73;1.30;;;21.80;80.60;;;;;;5093265;27;20234;-43
2022/08/31 00:28:20;;;;;;;1.98;1.40;;;21.80;80.60;;;;;;5117485;27;20229;-43
2022/08/31 00:30:48;;;;;;;3.22;1.30;;;21.80;80.70;;;;;;5113382;27;20285;-44
2022/08/31 00:33:16;;;;;;;4.15;1.15;;;21.80;80.80;;;;;;5109769;27;20303;-42
2022/08/31 00:35:46;;;;;;;1.30;1.20;;;21.70;80.90;;;;;;5120942;27;20699;-39
2022/08/31 00:38:15;;;;;;;2.30;1.17;;;21.70;80.70;;;;;;5112479;27;20335;-38
2022/08/31 00:40:48;;;;;;;4.57;1.40;;;21.70;80.80;;;;;;5121428;27;20206;-38
2022/08/31 00:43:47;;;;;;;3.35;1.73;;;21.70;81.30;;;;;;5113854;27;20668;-37
2022/08/31 00:46:20;;;;;;;2.20;1.35;;;21.70;81.00;;;;;;5118829;27;20190;-38
2022/08/31 00:49:10;;;;;;;3.05;1.35;;;21.70;81.30;;;;;;5116247;27;20569;-38
2022/08/31 00:51:58;;;;;;;1.58;1.20;;;21.70;81.20;;;;;;5119124;27;20221;-38
2022/08/31 00:54:32;;;;;;;1.40;1.30;;;21.60;81.90;;;;;;5116962;27;20289;-38
2022/08/31 00:57:02;;;;;;;2.75;1.35;;;21.60;81.50;;;;;;5117540;27;20198;-38
2022/08/31 00:59:32;;;;;;;2.90;1.20;;;21.50;81.60;;;;;;5094055;27;20237;-38
2022/08/31 01:02:03;;;;;;;3.58;1.52;;;21.50;81.80;;;;;;5109609;27;20297;-38
2022/08/31 01:04:30;;;;;;;3.30;1.55;;;21.50;81.60;;;;;;5120506;27;20683;-38
2022/08/31 01:06:58;;;;;;;1.52;1.30;;;21.50;82.40;;;;;;5114084;27;20263;-38
2022/08/31 01:09:31;;;;;;;2.72;1.48;;;21.50;81.60;;;;;;5090245;27;20201;-38
2022/08/31 01:12:01;;;;;;;1.83;1.50;;;21.50;81.60;;;;;;5119124;27;20229;-38
2022/08/31 01:14:29;;;;;;;4.55;1.52;;;21.50;81.70;;;;;;5113291;27;20205;-39
2022/08/31 01:16:58;;;;;;;1.80;1.42;;;21.50;82.60;;;;;;5101236;27;20565;-40
2022/08/31 01:19:31;;;;;;;2.72;1.35;;;21.50;82.10;;;;;;5116832;27;20206;-38
2022/08/31 01:22:06;;;;;;;1.65;1.42;;;21.40;82.10;;;;;;5120327;27;20225;-38
2022/08/31 01:24:37;;;;;;;2.05;1.50;;;21.50;82.90;;;;;;5109713;27;20283;-41
2022/08/31 01:27:07;;;;;;;3.60;1.25;;;21.40;82.90;;;;;;5113054;27;20206;-38
2022/08/31 01:29:35;;;;;;;4.07;1.30;;;21.40;82.60;;;;;;5114971;27;20226;-38
2022/08/31 01:32:04;;;;;;;2.35;1.48;;;21.30;82.30;;;;;;5105312;27;20270;-38
2022/08/31 01:34:33;;;;;;;1.40;1.17;;;21.40;82.40;;;;;;5101256;27;20229;-38
2022/08/31 01:37:05;;;;;;;6.13;1.67;;;21.30;83.10;;;;;;5119934;27;20228;-38
2022/08/31 01:39:32;;;;;;;3.80;1.75;;;21.30;82.80;;;;;;5109662;27;20233;-38
2022/08/31 01:41:59;;;;;;;3.72;1.50;;;21.20;82.50;;;;;;5118426;27;20191;-38
2022/08/31 01:44:27;;;;;;;2.28;1.80;;;21.20;83.00;;;;;;5115562;27;20205;-38
2022/08/31 01:46:55;;;;;;;2.40;1.35;;;21.20;82.90;;;;;;5095900;27;20660;-39
2022/08/31 01:49:23;;;;;;;2.95;1.60;;;21.20;82.80;;;;;;5114984;27;20224;-39
2022/08/31 01:51:52;;;;;;;2.90;1.75;;;21.20;83.00;;;;;;5116670;27;20206;-38
2022/08/31 01:54:23;;;;;;;1.92;1.65;;;21.20;83.20;;;;;;5119650;27;20206;-39
2022/08/31 01:56:51;;;;;;;1.77;1.30;;;21.20;83.20;;;;;;5112068;27;20210;-39
2022/08/31 01:59:21;;;;;;;1.90;1.42;;;21.20;83.00;;;;;;5090265;28;20234;-39
2022/08/31 02:01:52;;;;;;;1.67;1.38;;;21.20;83.20;;;;;;5092061;28;20624;-39
2022/08/31 02:04:26;;;;;;;2.13;1.58;;;21.30;83.70;;;;;;5097117;28;20672;-39
2022/08/31 02:06:56;;;;;;;1.98;1.40;;;21.20;83.90;;;;;;5088975;28;20681;-38
2022/08/31 02:09:24;;;;;;;2.67;1.50;;;21.20;83.70;;;;;;5098738;28;20716;-39
2022/08/31 02:11:52;;;;;;;5.10;1.85;;;21.20;83.50;;;;;;5089402;28;20310;-39
2022/08/31 02:14:20;;;;;;;1.60;1.33;;;21.20;84.10;;;;;;5085588;28;20214;-39
2022/08/31 02:16:48;;;;;;;2.28;1.55;;;21.20;83.50;;;;;;5094806;28;20195;-38
2022/08/31 02:19:19;;;;;;;3.30;1.70;;;21.20;83.50;;;;;;5103628;28;20198;-40
2022/08/31 02:21:47;;;;;;;2.00;1.65;;;21.20;83.90;;;;;;5091966;28;20222;-39
2022/08/31 02:24:16;;;;;;;2.53;1.67;;;21.20;84.80;;;;;;5098495;28;20214;-39
2022/08/31 02:26:45;;;;;;;5.85;1.60;;;21.20;84.20;;;;;;5090609;28;20673;-38
2022/08/31 02:29:20;;;;;;;3.72;1.80;;;21.20;84.00;;;;;;5089250;28;20233;-38
2022/08/31 02:31:47;;;;;;;2.88;1.70;;;21.20;84.90;;;;;;5091743;28;20223;-40
2022/08/31 02:34:17;;;;;;;1.92;1.58;;;21.20;84.40;;;;;;5085905;28;20199;-38
2022/08/31 02:36:44;;;;;;;2.50;1.63;;;21.20;84.50;;;;;;5094415;28;21077;-38
2022/08/31 02:39:12;;;;;;;1.85;1.50;;;21.20;84.10;;;;;;5087832;28;20195;-39
2022/08/31 02:41:41;;;;;;;3.72;1.48;;;21.20;84.90;;;;;;5100443;28;20211;-39
2022/08/31 02:44:08;;;;;;;2.45;1.58;;;21.20;84.40;;;;;;5097078;28;20233;-39
2022/08/31 02:46:37;;;;;;;3.88;1.52;;;21.20;84.70;;;;;;5091889;28;20203;-39
2022/08/31 02:49:05;;;;;;;3.35;1.70;;;21.20;84.80;;;;;;5095153;28;20205;-39
2022/08/31 02:51:32;;;;;;;3.03;1.80;;;21.20;84.70;;;;;;5095207;28;20663;-39
2022/08/31 02:54:00;;;;;;;2.85;1.45;;;21.20;84.50;;;;;;5095070;28;20205;-39
2022/08/31 02:56:27;;;;;;;2.20;1.80;;;21.20;84.60;;;;;;5089152;28;20309;-43
2022/08/31 02:58:57;;;;;;;3.47;1.95;;;21.20;86.50;;;;;;5106256;27;20233;-43
2022/08/31 03:01:30;;;;;;;2.45;1.45;;;21.20;85.20;;;;;;5112282;27;20230;-44
2022/08/31 03:03:59;;;;;;;2.00;1.67;;;21.20;84.90;;;;;;5104775;27;20218;-44
2022/08/31 03:06:30;;;;;;;3.05;2.00;;;21.20;86.10;;;;;;5102304;27;20214;-44
2022/08/31 03:09:00;;;;;;;3.47;1.90;;;21.20;86.10;;;;;;5121823;27;20198;-44
2022/08/31 03:11:30;;;;;;;1.73;1.40;;;21.10;86.10;;;;;;5118556;27;20725;-38
2022/08/31 03:13:57;;;;;;;2.72;1.80;;;21.10;85.60;;;;;;5121463;27;20193;-39
2022/08/31 03:16:29;;;;;;;3.05;1.92;;;21.10;85.50;;;;;;5086337;28;20218;-39
2022/08/31 03:18:59;;;;;;;1.58;1.48;;;21.10;85.70;;;;;;5092154;28;20217;-38
2022/08/31 03:21:26;;;;;;;3.17;1.70;;;21.10;85.80;;;;;;5118191;27;20193;-39
2022/08/31 03:23:55;;;;;;;2.15;1.73;;;21.10;86.20;;;;;;5087451;27;20216;-43
2022/08/31 03:26:23;;;;;;;2.22;1.65;;;21.10;86.00;;;;;;5105322;27;20238;-43
2022/08/31 03:28:50;;;;;;;2.53;2.03;;;21.00;86.10;;;;;;5109530;28;20189;-44
2022/08/31 03:31:21;;;;;;;4.63;1.85;;;21.00;86.90;;;;;;5120971;28;20204;-43
2022/08/31 03:33:50;;;;;;;2.13;1.80;;;21.00;86.60;;;;;;5106650;28;20588;-44
2022/08/31 03:36:20;;;;;;;3.47;1.90;;;21.00;86.60;;;;;;5091013;28;20208;-43
2022/08/31 03:38:49;;;;;;;2.10;1.90;;;21.00;86.50;;;;;;5100406;28;20201;-43
2022/08/31 03:41:22;;;;;;;2.40;1.77;;;20.90;86.70;;;;;;5116752;28;20209;-43
2022/08/31 03:43:50;;;;;;;1.95;1.80;;;21.00;87.00;;;;;;5095935;28;20200;-43
2022/08/31 03:46:20;;;;;;;2.88;2.10;;;20.90;87.10;;;;;;5115636;28;20565;-43
2022/08/31 03:48:48;;;;;;;2.55;1.95;;;20.90;87.40;;;;;;5118943;28;20720;-43
2022/08/31 03:51:16;;;;;;;3.17;1.60;;;21.00;87.20;;;;;;5121697;27;20213;-43
2022/08/31 03:53:46;;;;;;;3.80;2.03;;;20.90;87.10;;;;;;5114426;27;20320;-43
2022/08/31 03:56:13;;;;;;;3.80;2.20;;;20.90;87.00;;;;;;5118655;27;20208;-43
2022/08/31 03:58:40;;;;;;;2.88;1.83;;;20.90;87.60;;;;;;5112354;27;20322;-43
2022/08/31 04:01:13;;;;;;;1.65;1.55;;;20.90;87.30;;;;;;5104651;27;20201;-44
2022/08/31 04:03:40;;;;;;;2.35;1.98;;;20.90;87.20;;;;;;5090311;27;20336;-39
2022/08/31 04:06:12;;;;;;;3.20;1.92;;;20.90;87.60;;;;;;5114145;27;20210;-39
2022/08/31 04:08:42;;;;;;;3.05;1.85;;;20.90;87.50;;;;;;5092455;27;20222;-39
2022/08/31 04:11:17;;;;;;;2.75;2.13;;;20.90;87.80;;;;;;5124113;27;20536;-39
2022/08/31 04:14:07;;;;;;;3.38;1.88;;;20.90;88.10;;;;;;5120798;27;20193;-38
2022/08/31 04:16:39;;;;;;;4.60;2.05;;;20.90;87.70;;;;;;5103147;27;20243;-38
2022/08/31 04:19:14;;;;;;;2.60;2.10;;;20.90;87.60;;;;;;5113713;27;20220;-39
2022/08/31 04:21:42;;;;;;;4.32;2.03;;;20.90;87.40;;;;;;5119716;27;20258;-38
2022/08/31 04:24:10;;;;;;;4.65;1.92;;;20.90;87.30;;;;;;5113744;27;20304;-39
2022/08/31 04:26:42;;;;;;;4.07;2.17;;;20.90;87.40;;;;;;5117168;27;20585;-38
2022/08/31 04:29:09;;;;;;;2.53;2.00;;;20.90;88.00;;;;;;5111039;27;20205;-38
2022/08/31 04:31:41;;;;;;;3.72;2.05;;;20.90;87.40;;;;;;5118405;27;20201;-39
2022/08/31 04:34:14;;;;;;;3.45;2.08;;;20.90;88.10;;;;;;5114067;27;20700;-39
2022/08/31 04:36:44;;;;;;;3.88;1.98;;;20.90;88.40;;;;;;5101466;27;20216;-39
2022/08/31 04:39:11;;;;;;;4.00;2.40;;;20.90;87.80;;;;;;5110866;27;20282;-39
2022/08/31 04:41:42;;;;;;;3.28;2.00;;;20.80;89.00;;;;;;5093785;27;20206;-38
2022/08/31 04:44:10;;;;;;;3.40;2.08;;;20.80;88.10;;;;;;5113512;27;21143;-39
2022/08/31 04:46:42;;;;;;;2.33;1.50;;;20.80;88.20;;;;;;5125235;27;20219;-39
2022/08/31 04:49:10;;;;;;;2.45;2.25;;;20.90;87.90;;;;;;5118050;27;20205;-39
2022/08/31 04:51:38;;;;;;;3.33;1.88;;;20.80;88.30;;;;;;5124248;27;20280;-38
2022/08/31 04:54:08;;;;;;;3.00;2.30;;;20.80;88.90;;;;;;5096517;28;20295;-38
2022/08/31 04:56:42;;;;;;;3.92;2.17;;;20.90;88.40;;;;;;5110608;27;20198;-38
2022/08/31 04:59:13;;;;;;;3.33;2.10;;;20.80;89.00;;;;;;5108708;27;20337;-39
2022/08/31 05:01:44;;;;;;;2.70;2.33;;;20.80;88.90;;;;;;5100668;28;20202;-38
2022/08/31 05:04:14;;;;;;;3.97;2.40;;;20.90;88.80;;;;;;5118178;27;20324;-38
2022/08/31 05:06:50;;;;;;;3.30;1.88;;;20.80;88.50;;;;;;5116352;27;20208;-39
2022/08/31 05:09:21;;;;;;;4.93;2.10;;;20.80;88.60;;;;;;5116532;27;20545;-38
2022/08/31 05:11:50;;;;;;;3.60;2.17;;;20.80;88.60;;;;;;5116941;27;20214;-43
2022/08/31 05:14:20;;;;;;;3.95;1.95;;;20.80;89.10;;;;;;5100129;27;20591;-43
2022/08/31 05:16:51;;;;;;;3.17;2.30;;;20.80;88.60;;;;;;5118923;27;20717;-43
2022/08/31 05:19:19;;;;;;;2.90;2.28;;;20.80;88.60;;;;;;5111279;27;20194;-43
2022/08/31 05:21:47;;;;;;;3.45;2.10;;;20.90;89.00;;;;;;5111757;27;20206;-44
2022/08/31 05:24:17;;;;;;;2.42;2.03;;;20.90;89.00;;;;;;5122093;27;20221;-44
2022/08/31 05:26:51;;;;;;;5.57;2.50;;;20.90;89.30;;;;;;5115804;27;20297;-39
2022/08/31 05:29:25;;;;;;;5.45;2.53;;;20.90;89.10;;;;;;5114585;27;20232;-38
2022/08/31 05:31:53;;;;;;;4.72;2.03;;;20.90;89.90;;;;;;5119608;27;20306;-38
2022/08/31 05:34:21;;;;;;;2.92;1.90;;;20.90;89.30;;;;;;5116818;27;20320;-38
2022/08/31 05:36:52;;;;;;;3.47;2.13;;;20.80;89.00;;;;;;5113192;27;20727;-38
2022/08/31 05:39:19;;;;;;;6.03;2.10;;;20.90;90.20;;;;;;5115559;27;20684;-38
2022/08/31 05:41:47;;;;;;;3.88;2.10;;;20.90;89.50;;;;;;5117108;27;20280;-39
2022/08/31 05:44:19;;;;;;;8.75;2.10;;;20.80;89.60;;;;;;5116629;27;20807;-39
2022/08/31 05:46:52;;;;;;;1.90;1.70;;;20.80;89.90;;;;;;5122416;27;20707;-39
2022/08/31 05:49:31;;;;;;;4.97;2.05;;;20.80;89.30;;;;;;5118734;27;20201;-39
2022/08/31 05:51:59;;;;;;;3.13;2.22;;;20.90;90.10;;;;;;5117142;27;20665;-39
2022/08/31 05:54:32;;;;;;;7.25;2.30;;;20.90;90.30;;;;;;5085431;28;20191;-39
2022/08/31 05:57:02;;;;;;;3.25;1.90;;;20.90;90.40;;;;;;5120979;27;20630;-42
2022/08/31 05:59:30;;;;;;;2.17;1.92;;;20.90;90.40;;;;;;5114096;27;20233;-43
2022/08/31 06:02:00;;;;;;;3.72;2.38;;;20.90;90.20;;;;;;5110173;27;20210;-43
2022/08/31 06:04:30;;;;;;;5.50;2.22;;;20.80;90.40;;;;;;5093154;27;20206;-43
2022/08/31 06:07:00;;;;;;;3.67;2.15;;;20.80;90.60;;;;;;5107930;27;20284;-43
2022/08/31 06:09:28;;;;;;;5.05;2.00;;;20.80;90.20;;;;;;5103611;27;20910;-43
2022/08/31 06:11:57;;;;;;;3.97;1.95;;;20.80;90.30;;;;;;5105473;27;20631;-43
2022/08/31 06:14:32;;;;;;;5.43;2.20;;;20.70;90.30;;;;;;5090204;27;20342;-43
2022/08/31 06:17:02;;;;;;;6.13;2.72;;;20.80;90.50;;;;;;5115571;27;20555;-44
2022/08/31 06:19:31;;;;;;;4.75;2.28;;;20.80;90.40;;;;;;5117788;27;20703;-43
2022/08/31 06:22:01;;;;;;;2.70;2.22;;;20.80;90.80;;;;;;5139623;27;20205;-43
2022/08/31 06:24:35;;;;;;;3.97;2.40;;;20.80;90.80;;;;;;5111834;27;20578;-39
2022/08/31 06:27:04;;;;;;;3.65;1.90;;;20.80;90.80;;;;;;5103339;27;20209;-44
2022/08/31 06:29:34;;;;;;;3.97;2.10;;;20.70;90.60;;;;;;5122085;27;20577;-44
2022/08/31 06:32:07;;;;;;;5.85;2.45;;;20.70;91.10;;;;;;5124138;27;20381;-45
2022/08/31 06:34:36;;;;;;;6.25;2.42;;;20.80;91.30;;;;;;5119060;27;20217;-43
2022/08/31 06:37:04;;;;;;;3.28;2.15;;;20.70;91.70;;;;;;5107249;27;20228;-44
2022/08/31 06:39:34;;;;;;;2.85;1.95;;;20.60;90.80;;;;;;5109271;27;20243;-43
2022/08/31 06:42:03;;;;;;;2.35;2.15;;;20.70;90.80;;;;;;5117123;27;20217;-44
2022/08/31 06:44:32;;;;;;;2.55;2.13;;;20.60;91.00;;;;;;5091636;27;20202;-43
2022/08/31 06:47:00;;;;;;;2.78;2.22;;;20.60;91.40;;;;;;5117363;27;20584;-38
2022/08/31 06:49:27;;;;;;;6.95;2.30;;;20.50;91.40;;;;;;5123151;27;20216;-38
2022/08/31 06:51:56;;;;;;;2.15;2.00;;;20.60;91.10;;;;;;5117122;27;20271;-38
2022/08/31 06:54:26;;;;;;;5.45;2.00;;;20.60;91.10;;;;;;5122814;27;20250;-42
2022/08/31 06:57:01;;;;;;;4.32;2.53;;;20.60;91.20;;;;;;5107427;28;20218;-42
2022/08/31 06:59:32;;;;;;;3.67;2.53;;;20.50;91.50;;;;;;5106931;28;20281;-43
2022/08/31 07:02:00;;;;;;;2.33;2.10;;;20.50;91.40;;;;;;5099354;27;20225;-42
2022/08/31 07:04:35;;;;;;;5.15;2.10;;;20.60;91.00;;;;;;5119536;27;20342;-43
2022/08/31 07:07:05;;;;;;;3.88;2.50;;;20.60;91.40;;;;;;5107564;28;20225;-43
2022/08/31 07:09:33;;;;;;;3.53;2.80;;;20.60;91.60;;;;;;5106183;28;20655;-43
2022/08/31 07:12:00;;;;;;;9.25;2.47;;;20.60;91.60;;;;;;5125228;27;20206;-43
2022/08/31 07:14:30;;;;;;;3.30;2.10;;;20.60;91.40;;;;;;5118992;27;20240;-42
2022/08/31 07:17:01;;;;;;;2.53;2.30;;;20.60;91.50;;;;;;5112589;27;20212;-43
2022/08/31 07:19:30;;;;;;;2.88;2.60;;;20.60;91.60;;;;;;5122695;27;20190;-39
2022/08/31 07:22:03;;;;;;;2.35;2.05;;;20.70;91.50;;;;;;5123147;27;20691;-38
2022/08/31 07:24:34;;;;;;;4.05;2.53;;;20.70;91.60;;;;;;5120947;27;20308;-39
2022/08/31 07:27:08;;;;;;;4.20;2.58;;;20.70;91.70;;;;;;5121190;27;20216;-39
2022/08/31 07:29:39;;;;;;;3.03;2.40;;;20.80;91.60;;;;;;5127258;27;20505;-38
2022/08/31 07:32:08;;;;;;;4.80;3.30;;;20.80;91.70;;;;;;5100482;27;20314;-39
2022/08/31 07:34:39;;;;;;;5.00;2.55;;;20.80;91.70;;;;;;5142117;27;20332;-38
2022/08/31 07:42:43;;;;;;;3.28;2.70;;;20.70;91.60;;;;;;5108605;27;20573;-43
2022/08/31 07:45:21;;;;;;;4.00;2.60;;;20.80;91.50;;;;;;5090596;28;20480;-43
2022/08/31 07:47:56;;;;;;;2.95;2.53;;;20.90;91.70;;;;;;5108483;27;20209;-43
2022/08/31 07:50:26;;;;;;;3.83;2.35;;;20.80;91.60;;;;;;5112023;28;20301;-42
2022/08/31 07:52:59;;;;;;;3.60;2.25;;;20.90;91.50;;;;;;5127459;28;20259;-43
2022/08/31 07:55:33;;;;;;;3.15;2.70;;;20.90;91.40;;;;;;5118042;28;20220;-43
2022/08/31 07:58:14;;;;;;;8.88;3.33;;;20.90;91.60;;;;;;5107870;28;20667;-48
2022/08/31 08:00:48;;;;;;;3.72;2.95;;;20.90;91.70;;;;;;5118657;27;20193;-42
2022/08/31 08:03:18;;;;;;;8.02;3.10;;;21.00;91.60;;;;;;5098209;28;20262;-43
2022/08/31 08:05:52;;;;;;;4.68;2.92;;;20.90;91.70;;;;;;5114529;27;20270;-43
2022/08/31 08:08:21;;;;;;;3.30;3.00;;;20.90;91.80;;;;;;5121412;28;20212;-43
2022/08/31 08:10:51;;;;;;;6.85;3.40;;;20.90;91.60;;;;;;5119887;28;20232;-43
2022/08/31 08:13:21;;;;;;;4.10;3.13;;;20.90;91.50;;;;;;5105042;27;20221;-38
2022/08/31 08:15:49;;;;;;;4.50;3.30;;;20.90;91.70;;;;;;5101781;28;20236;-43
2022/08/31 08:18:18;;;;;;;6.28;3.90;;;20.90;91.70;;;;;;5120374;27;20208;-43
2022/08/31 08:20:48;;;;;;;5.05;2.97;;;20.90;92.00;;;;;;5096415;28;20208;-43
2022/08/31 08:23:19;;;;;;;6.93;3.67;;;20.90;91.50;;;;;;5115531;28;20202;-42
2022/08/31 08:25:59;;;;;;;4.07;3.33;;;21.00;91.70;;;;;;5124476;27;20209;-42
2022/08/31 08:28:30;;;;;;;8.85;3.45;;;21.00;91.70;;;;;;5102717;27;20641;-43
2022/08/31 08:31:16;;;;;;;4.30;3.30;;;21.00;91.50;;;;;;5113335;27;20201;-44
2022/08/31 08:33:44;;;;;;;7.07;3.80;;;21.00;91.70;;;;;;5104832;28;20240;-42
2022/08/31 08:36:16;;;;;;;10.13;4.03;;;21.00;91.70;;;;;;5099068;27;20274;-42
2022/08/31 08:38:46;;;;;;;3.63;2.95;;;21.00;91.50;;;;;;5111286;27;20206;-41
2022/08/31 08:41:22;;;;;;;5.38;4.03;;;21.10;91.70;;;;;;5109057;27;20658;-43
2022/08/31 08:43:57;;;;;;;7.50;3.67;;;21.10;91.70;;;;;;5109567;27;20201;-42
2022/08/31 08:46:55;;;;;;;8.40;3.90;;;21.20;91.90;;;;;;5123447;27;20320;-43
2022/08/31 08:49:23;;;;;;;7.45;3.58;;;21.20;91.80;;;;;;5123249;27;20305;-43
2022/08/31 08:52:02;;;;;;;5.38;3.42;;;21.20;91.70;;;;;;5129933;27;20204;-43
2022/08/31 08:54:37;;;;;;;7.00;4.15;;;21.30;91.70;;;;;;5109539;27;20230;-42
2022/08/31 08:57:19;;;;;;;7.57;4.05;;;21.30;91.80;;;;;;5137902;27;20260;-43
2022/08/31 08:59:49;;;;;;;7.10;3.78;;;21.40;91.80;;;;;;5145738;27;20225;-43
2022/08/31 09:02:24;;;;;;;3.90;3.50;;;21.40;91.80;;;;;;5120287;27;20236;-43
2022/08/31 09:05:29;;;;;;;6.05;3.75;;;21.50;92.00;;;;;;5127776;27;20205;-46
2022/08/31 09:08:09;;;;;;;5.72;4.57;;;21.50;91.80;;;;;;5109596;28;20290;-43
2022/08/31 09:11:05;;;;;;;9.25;4.32;;;21.60;91.90;;;;;;5125752;27;20217;-42
2022/08/31 09:13:55;;;;;;;8.13;4.40;;;21.70;91.80;;;;;;5106549;27;20221;-43
2022/08/31 09:16:43;;;;;;;7.53;3.83;;;21.60;91.80;;;;;;5124108;27;20190;-37
2022/08/31 09:19:14;;;;;;;5.78;3.15;;;21.70;91.90;;;;;;5095506;27;20240;-37
2022/08/31 09:21:49;;;;;;;8.30;3.75;;;21.70;91.80;;;;;;5121369;27;20198;-37
2022/08/31 09:24:19;;;;;;;7.38;3.22;;;21.80;91.80;;;;;;5095613;27;20201;-38
2022/08/31 09:27:16;;;;;;;5.13;3.50;;;21.90;91.80;;;;;;5115030;27;20742;-38
2022/08/31 09:29:55;;;;;;;5.75;3.53;;;21.90;91.90;;;;;;5108343;27;20688;-38
2022/08/31 09:32:25;;;;;;;7.90;4.18;;;22.10;91.90;;;;;;5098170;27;20194;-38
2022/08/31 09:35:13;;;;;;;11.60;4.40;;;22.10;91.90;;;;;;5110833;27;20222;-38
2022/08/31 09:37:46;;;;;;;3.97;2.92;;;22.20;91.70;;;;;;5109869;27;20550;-37
2022/08/31 09:40:42;;;;;;;8.38;3.83;;;22.20;91.80;;;;;;5127264;27;20237;-38
2022/08/31 09:43:28;;;;;;;4.75;3.53;;;22.20;91.70;;;;;;5122292;27;20213;-37
2022/08/31 09:46:08;;;;;;;5.70;3.75;;;22.40;91.80;;;;;;5119345;27;20225;-38
2022/08/31 09:48:51;;;;;;;3.90;3.47;;;22.40;91.70;;;;;;5108508;28;20568;-38
2022/08/31 09:51:32;;;;;;;4.80;3.35;;;22.50;91.70;;;;;;5118389;27;20572;-43
2022/08/31 09:57:04;;;;;;;4.60;3.08;;;22.50;91.70;;;;;;5128466;27;20288;-43
2022/08/31 09:59:40;;;;;;;4.93;2.95;;;22.50;91.60;;;;;;5129135;27;20237;-43
2022/08/31 10:02:23;;;;;;;6.15;3.13;;;22.60;91.50;;;;;;5131753;27;20704;-42
2022/08/31 10:04:59;;;;;;;6.18;3.83;;;22.60;91.50;;;;;;5149643;27;20224;-43
2022/08/31 10:07:51;;;;;;;5.10;4.15;;;22.60;91.20;;;;;;5111364;27;20205;-39
2022/08/31 10:10:31;;;;;;;5.22;3.47;;;22.70;91.30;;;;;;5121913;27;20585;-38
2022/08/31 10:13:03;;;;;;;9.18;3.85;;;22.70;91.20;;;;;;5122666;27;20727;-38
2022/08/31 10:15:39;;;;;;;4.43;3.05;;;22.70;91.30;;;;;;5124036;27;20227;-38
2022/08/31 10:18:18;;;;;;;5.85;3.00;;;22.70;91.20;;;;;;5125149;27;20224;-38
2022/08/31 10:21:06;;;;;;;7.78;3.42;;;22.80;91.30;;;;;;5140949;27;20200;-38
2022/08/31 10:23:53;;;;;;;10.32;5.18;;;22.80;91.30;;;;;;5126739;27;20740;-38
2022/08/31 10:26:41;;;;;;;6.85;4.10;;;22.80;91.10;;;;;;5128294;27;20197;-38
2022/08/31 10:29:17;;;;;;;5.47;3.58;;;22.90;91.20;;;;;;5106261;28;20265;-42
2022/08/31 10:31:57;;;;;;;4.82;4.20;;;22.90;91.20;;;;;;5101362;27;20249;-43
2022/08/31 10:37:31;;;;;;;11.02;5.00;;;23.00;91.20;;;;;;5124088;27;20236;-43
2022/08/31 10:40:16;;;;;;;6.50;4.90;;;23.10;91.30;;;;;;5113288;27;20271;-42
2022/08/31 10:42:58;;;;;;;12.80;7.00;;;23.20;91.10;;;;;;5107332;28;20641;-42
2022/08/31 10:45:27;;;;;;;13.38;5.60;;;23.20;91.10;;;;;;5114395;27;20676;-43
2022/08/31 10:47:59;;;;;;;9.93;5.88;;;23.30;91.20;;;;;;5118419;27;20217;-43
2022/08/31 10:50:43;;;;;;;7.97;6.30;;;23.20;91.00;;;;;;5135740;27;20277;-44
2022/08/31 10:53:37;;;;;;;7.22;5.75;;;23.20;91.10;;;;;;5107085;28;20259;-44
2022/08/31 10:56:20;;;;;;;10.98;6.03;;;23.30;91.00;;;;;;5114738;27;20630;-43
2022/08/31 10:59:18;;;;;;;7.90;5.95;;;23.30;90.90;;;;;;5104968;27;20255;-43
2022/08/31 11:01:55;;;;;;;10.65;6.07;;;23.40;90.90;;;;;;5094075;28;20224;-44
2022/08/31 11:04:41;;;;;;;11.23;6.30;;;23.30;90.80;;;;;;5135494;27;20219;-42
2022/08/31 11:07:25;;;;;;;9.82;6.28;;;23.40;90.70;;;;;;5121877;27;20221;-38
2022/08/31 11:10:19;;;;;;;8.88;6.68;;;23.40;90.70;;;;;;5102202;27;20205;-43
2022/08/31 11:12:55;;;;;;;8.57;5.53;;;23.40;90.90;;;;;;5109975;27;20215;-43
2022/08/31 11:15:39;;;;;;;6.85;4.75;;;23.50;90.90;;;;;;5120484;27;20683;-42
2022/08/31 11:18:09;;;;;;;8.38;6.20;;;23.50;91.00;;;;;;5124149;27;20190;-43
2022/08/31 11:21:07;;;;;;;10.88;6.68;;;23.50;91.00;;;;;;5119233;27;20642;-46
2022/08/31 11:23:48;;;;;;;11.65;5.88;;;23.60;90.90;;;;;;5124136;27;20190;-42
2022/08/31 11:26:34;;;;;;;10.93;7.22;;;23.70;91.10;;;;;;5107729;28;20768;-43
2022/08/31 11:29:20;;;;;;;9.95;7.53;;;23.70;91.20;;;;;;5106898;28;20203;-42
2022/08/31 11:31:48;;;;;;;12.50;8.52;;;23.80;91.00;;;;;;5108633;28;20225;-43
2022/08/31 11:34:26;;;;;;;9.63;7.07;;;23.90;90.90;;;;;;5114464;27;20938;-42
2022/08/31 11:36:55;;;;;;;9.35;6.82;;;24.00;91.20;;;;;;5107282;28;20202;-42
2022/08/31 11:39:43;;;;;;;15.13;7.95;;;24.00;91.10;;;;;;5115935;28;20551;-43
2022/08/31 11:42:33;;;;;;;12.55;7.95;;;24.10;91.20;;;;;;5106936;28;20285;-43
2022/08/31 11:45:21;;;;;;;10.77;7.28;;;24.20;91.00;;;;;;5088472;28;20202;-42
2022/08/31 11:47:53;;;;;;;17.17;9.20;;;24.30;91.00;;;;;;5119263;27;20224;-43
2022/08/31 11:50:23;;;;;;;15.57;10.48;;;24.30;90.70;;;;;;5135695;27;20233;-37
2022/08/31 11:52:55;;;;;;;14.10;11.55;;;24.30;90.60;;;;;;5106665;28;20205;-38
2022/08/31 11:55:27;;;;;;;15.95;11.43;;;24.30;90.40;;;;;;5103268;28;20298;-38
2022/08/31 11:58:06;;;;;;;18.85;13.10;;;24.30;90.90;;;;;;5127194;28;20220;-38
2022/08/31 12:00:58;;;;;;;19.58;12.27;;;24.30;90.50;;;;;;5123254;28;20296;-38
2022/08/31 12:03:50;;;;;;;17.35;12.70;;;24.40;90.50;;;;;;5141059;27;20241;-38
2022/08/31 12:06:24;;;;;;;16.90;13.23;;;24.40;90.70;;;;;;5088126;28;20217;-42
2022/08/31 12:09:26;;;;;;;18.15;12.60;;;24.50;90.80;;;;;;5106705;28;20208;-44
2022/08/31 12:11:53;;;;;;;16.63;12.55;;;24.50;91.10;;;;;;5109450;28;20206;-43
2022/08/31 12:14:58;;;;;;;25.73;14.23;;;24.60;91.10;;;;;;5110539;28;20603;-42
2022/08/31 12:17:34;;;;;;;19.00;14.55;;;24.70;90.60;;;;;;5130297;27;20648;-43
2022/08/31 12:20:20;;;;;;;20.83;12.30;;;24.70;90.60;;;;;;5128663;27;20276;-44
2022/08/31 12:23:36;;;;;;;14.40;11.70;;;24.70;91.00;;;;;;5129753;27;20213;-43
2022/08/31 12:26:24;;;;;;;17.95;13.20;;;24.70;91.00;;;;;;5121513;27;20315;-42
2022/08/31 12:29:21;;;;;;;20.67;15.85;;;24.70;90.90;;;;;;5115573;27;20209;-42
2022/08/31 12:32:03;;;;;;;22.08;15.13;;;24.70;90.80;;;;;;5126991;27;20596;-42
2022/08/31 12:35:17;;;;;;;21.13;16.25;;;24.80;90.70;;;;;;5151204;27;20286;-42
2022/08/31 12:38:02;;;;;;;21.23;15.30;;;24.80;90.60;;;;;;5091902;28;20197;-42
2022/08/31 12:40:40;;;;;;;24.25;14.45;;;24.80;90.70;;;;;;5106609;27;20304;-42
2022/08/31 12:43:37;;;;;;;22.15;16.63;;;25.00;91.10;;;;;;5117720;27;20208;-41
2022/08/31 12:46:35;;;;;;;16.48;13.02;;;25.00;90.80;;;;;;5097982;27;20205;-42
2022/08/31 12:49:23;;;;;;;15.10;12.07;;;25.00;91.00;;;;;;5113743;27;20201;-42
2022/08/31 12:52:12;;;;;;;13.23;11.15;;;25.10;91.20;;;;;;5126900;27;20615;-42
2022/08/31 12:54:51;;;;;;;14.65;11.43;;;25.20;91.30;;;;;;5128826;27;20213;-42
2022/08/31 12:57:55;;;;;;;18.63;11.27;;;25.30;91.30;;;;;;5130042;27;20204;-41
2022/08/31 13:00:26;;;;;;;23.08;13.88;;;25.40;90.90;;;;;;5119555;27;20663;-43
2022/08/31 13:03:07;;;;;;;16.38;12.52;;;25.40;91.00;;;;;;5114619;27;20214;-42
2022/08/31 13:05:37;;;;;;;16.70;12.85;;;25.50;90.90;;;;;;5146929;27;20239;-37
2022/08/31 13:08:26;;;;;;;19.48;12.23;;;25.50;91.20;;;;;;5131328;27;20634;-37
2022/08/31 13:11:10;;;;;;;20.40;11.73;;;25.70;91.40;;;;;;5122331;27;20832;-37
2022/08/31 13:13:38;;;;;;;17.90;12.85;;;25.70;91.10;;;;;;5124678;27;20217;-36
2022/08/31 13:16:06;;;;;;;13.90;11.68;;;25.80;91.00;;;;;;5116299;27;20245;-36
2022/08/31 13:18:35;;;;;;;17.38;11.60;;;25.90;91.00;;;;;;5128627;27;20309;-38
2022/08/31 13:21:06;;;;;;;11.55;8.48;;;25.90;91.30;;;;;;5125157;27;20232;-42
2022/08/31 13:23:44;;;;;;;9.98;6.35;;;26.00;91.30;;;;;;5109373;27;20739;-39
2022/08/31 13:26:24;;;;;;;9.55;7.03;;;26.00;91.40;;;;;;5124935;27;20302;-39
2022/08/31 13:28:59;;;;;;;12.38;8.35;;;26.10;90.80;;;;;;5110692;27;20284;-38
2022/08/31 13:31:31;;;;;;;10.38;7.85;;;26.10;90.80;;;;;;5121312;27;20863;-39
2022/08/31 13:34:06;;;;;;;10.20;7.38;;;26.10;90.80;;;;;;5109807;27;20206;-39
2022/08/31 13:36:58;;;;;;;8.23;5.93;;;26.10;90.70;;;;;;5120867;27;20664;-37